sensor_id;sensor_type;location;lat;lon;timestamp;P1;durP1;ratioP1;P2;durP2;ratioP2
28245;SDS011;15510;52.512;13.300;2023-06-24T00:00:03;15.63;;;11.98;;
28245;SDS011;15510;52.512;13.300;2023-06-24T00:02:32;14.63;;;12.25;;
28245;SDS011;15510;52.512;13.300;2023-06-24T00:07:34;19.73;;;15.25;;
28245;SDS011;15510;52.512;13.300;2023-06-24T00:10:09;17.55;;;15.65;;
28245;SDS011;15510;52.512;13.300;2023-06-24T00:12:38;18.40;;;15.75;;
28245;SDS011;15510;52.512;13.300;2023-06-24T00:15:07;25.10;;;16.50;;
28245;SDS011;15510;52.512;13.300;2023-06-24T00:17:37;19.70;;;16.10;;
28245;SDS011;15510;52.512;13.300;2023-06-24T00:20:03;21.90;;;17.08;;
28245;SDS011;15510;52.512;13.300;2023-06-24T00:22:30;21.05;;;16.65;;
28245;SDS011;15510;52.512;13.300;2023-06-24T00:24:56;21.83;;;16.70;;
28245;SDS011;15510;52.512;13.300;2023-06-24T00:27:21;21.20;;;16.08;;
28245;SDS011;15510;52.512;13.300;2023-06-24T00:29:47;18.65;;;15.82;;
28245;SDS011;15510;52.512;13.300;2023-06-24T00:32:13;19.52;;;15.90;;
28245;SDS011;15510;52.512;13.300;2023-06-24T00:34:39;17.48;;;15.55;;
28245;SDS011;15510;52.512;13.300;2023-06-24T00:37:12;18.05;;;16.05;;
28245;SDS011;15510;52.512;13.300;2023-06-24T00:39:37;17.80;;;15.15;;
28245;SDS011;15510;52.512;13.300;2023-06-24T00:42:04;23.02;;;14.93;;
28245;SDS011;15510;52.512;13.300;2023-06-24T00:44:31;17.75;;;14.57;;
28245;SDS011;15510;52.512;13.300;2023-06-24T00:46:58;19.08;;;14.75;;
28245;SDS011;15510;52.512;13.300;2023-06-24T00:49:24;16.33;;;14.73;;
28245;SDS011;15510;52.512;13.300;2023-06-24T00:51:50;19.95;;;14.55;;
28245;SDS011;15510;52.512;13.300;2023-06-24T00:54:16;15.07;;;13.43;;
28245;SDS011;15510;52.512;13.300;2023-06-24T00:56:42;20.05;;;15.02;;
28245;SDS011;15510;52.512;13.300;2023-06-24T00:59:09;17.23;;;14.00;;
28245;SDS011;15510;52.512;13.300;2023-06-24T01:01:37;19.42;;;14.25;;
28245;SDS011;15510;52.512;13.300;2023-06-24T01:04:04;15.57;;;13.50;;
28245;SDS011;15510;52.512;13.300;2023-06-24T01:06:34;15.18;;;13.63;;
28245;SDS011;15510;52.512;13.300;2023-06-24T01:09:01;15.48;;;13.88;;
28245;SDS011;15510;52.512;13.300;2023-06-24T01:11:30;14.57;;;12.88;;
28245;SDS011;15510;52.512;13.300;2023-06-24T01:13:56;16.45;;;12.52;;
28245;SDS011;15510;52.512;13.300;2023-06-24T01:19:13;12.70;;;11.40;;
28245;SDS011;15510;52.512;13.300;2023-06-24T01:22:04;13.52;;;12.02;;
28245;SDS011;15510;52.512;13.300;2023-06-24T01:33:49;13.82;;;11.90;;
28245;SDS011;15510;52.512;13.300;2023-06-24T01:36:25;14.00;;;12.27;;
28245;SDS011;15510;52.512;13.300;2023-06-24T01:38:54;15.13;;;11.95;;
28245;SDS011;15510;52.512;13.300;2023-06-24T01:41:29;17.75;;;12.40;;
28245;SDS011;15510;52.512;13.300;2023-06-24T01:43:59;14.82;;;11.73;;
28245;SDS011;15510;52.512;13.300;2023-06-24T01:46:27;13.65;;;11.88;;
28245;SDS011;15510;52.512;13.300;2023-06-24T01:48:55;12.73;;;11.07;;
28245;SDS011;15510;52.512;13.300;2023-06-24T01:51:26;13.50;;;12.10;;
28245;SDS011;15510;52.512;13.300;2023-06-24T01:54:04;11.43;;;10.27;;
28245;SDS011;15510;52.512;13.300;2023-06-24T01:56:33;12.52;;;11.18;;
28245;SDS011;15510;52.512;13.300;2023-06-24T01:59:01;15.02;;;11.60;;
28245;SDS011;15510;52.512;13.300;2023-06-24T02:01:32;12.98;;;11.27;;
28245;SDS011;15510;52.512;13.300;2023-06-24T02:04:00;13.25;;;11.95;;
28245;SDS011;15510;52.512;13.300;2023-06-24T02:06:28;13.35;;;10.77;;
28245;SDS011;15510;52.512;13.300;2023-06-24T02:08:57;12.55;;;11.02;;
28245;SDS011;15510;52.512;13.300;2023-06-24T02:11:25;13.35;;;11.38;;
28245;SDS011;15510;52.512;13.300;2023-06-24T02:13:54;12.93;;;10.50;;
28245;SDS011;15510;52.512;13.300;2023-06-24T02:16:21;11.85;;;10.40;;
28245;SDS011;15510;52.512;13.300;2023-06-24T02:18:47;11.77;;;10.63;;
28245;SDS011;15510;52.512;13.300;2023-06-24T02:21:16;11.23;;;9.90;;
28245;SDS011;15510;52.512;13.300;2023-06-24T02:23:44;14.60;;;9.85;;
28245;SDS011;15510;52.512;13.300;2023-06-24T02:26:11;16.52;;;9.85;;
28245;SDS011;15510;52.512;13.300;2023-06-24T02:28:38;11.23;;;10.05;;
28245;SDS011;15510;52.512;13.300;2023-06-24T02:31:05;10.88;;;9.68;;
28245;SDS011;15510;52.512;13.300;2023-06-24T02:33:34;12.18;;;9.13;;
28245;SDS011;15510;52.512;13.300;2023-06-24T02:35:59;12.70;;;9.45;;
28245;SDS011;15510;52.512;13.300;2023-06-24T02:38:25;13.45;;;10.05;;
28245;SDS011;15510;52.512;13.300;2023-06-24T02:40:51;12.68;;;10.20;;
28245;SDS011;15510;52.512;13.300;2023-06-24T02:43:17;14.32;;;10.05;;
28245;SDS011;15510;52.512;13.300;2023-06-24T02:45:44;12.38;;;9.90;;
28245;SDS011;15510;52.512;13.300;2023-06-24T02:48:12;13.25;;;10.45;;
28245;SDS011;15510;52.512;13.300;2023-06-24T02:50:40;10.60;;;9.50;;
28245;SDS011;15510;52.512;13.300;2023-06-24T02:53:09;13.18;;;9.75;;
28245;SDS011;15510;52.512;13.300;2023-06-24T02:55:40;11.23;;;9.63;;
28245;SDS011;15510;52.512;13.300;2023-06-24T02:58:07;10.73;;;9.55;;
28245;SDS011;15510;52.512;13.300;2023-06-24T03:01:09;13.13;;;9.93;;
28245;SDS011;15510;52.512;13.300;2023-06-24T03:03:46;10.48;;;9.38;;
28245;SDS011;15510;52.512;13.300;2023-06-24T03:06:14;13.50;;;10.07;;
28245;SDS011;15510;52.512;13.300;2023-06-24T03:08:43;11.63;;;9.82;;
28245;SDS011;15510;52.512;13.300;2023-06-24T03:11:12;12.23;;;9.77;;
28245;SDS011;15510;52.512;13.300;2023-06-24T03:13:39;12.90;;;9.45;;
28245;SDS011;15510;52.512;13.300;2023-06-24T03:16:19;11.68;;;8.80;;
28245;SDS011;15510;52.512;13.300;2023-06-24T03:18:51;10.80;;;8.98;;
28245;SDS011;15510;52.512;13.300;2023-06-24T03:21:18;10.95;;;9.80;;
28245;SDS011;15510;52.512;13.300;2023-06-24T03:23:44;11.75;;;9.25;;
28245;SDS011;15510;52.512;13.300;2023-06-24T03:26:14;11.18;;;9.52;;
28245;SDS011;15510;52.512;13.300;2023-06-24T03:28:41;12.85;;;9.70;;
28245;SDS011;15510;52.512;13.300;2023-06-24T03:31:11;12.73;;;10.00;;
28245;SDS011;15510;52.512;13.300;2023-06-24T03:33:40;13.02;;;9.43;;
28245;SDS011;15510;52.512;13.300;2023-06-24T03:36:10;12.23;;;9.30;;
28245;SDS011;15510;52.512;13.300;2023-06-24T03:38:36;14.25;;;8.73;;
28245;SDS011;15510;52.512;13.300;2023-06-24T03:41:02;13.38;;;10.07;;
28245;SDS011;15510;52.512;13.300;2023-06-24T03:43:27;12.98;;;9.73;;
28245;SDS011;15510;52.512;13.300;2023-06-24T03:45:54;9.88;;;8.95;;
28245;SDS011;15510;52.512;13.300;2023-06-24T03:48:20;9.63;;;8.60;;
28245;SDS011;15510;52.512;13.300;2023-06-24T03:50:46;11.15;;;8.77;;
28245;SDS011;15510;52.512;13.300;2023-06-24T03:53:11;9.95;;;8.32;;
28245;SDS011;15510;52.512;13.300;2023-06-24T03:55:37;9.52;;;8.30;;
28245;SDS011;15510;52.512;13.300;2023-06-24T03:58:04;11.82;;;9.18;;
28245;SDS011;15510;52.512;13.300;2023-06-24T04:00:29;11.55;;;8.48;;
28245;SDS011;15510;52.512;13.300;2023-06-24T04:02:56;13.07;;;8.65;;
28245;SDS011;15510;52.512;13.300;2023-06-24T04:05:22;9.73;;;8.20;;
28245;SDS011;15510;52.512;13.300;2023-06-24T04:07:49;10.68;;;8.63;;
28245;SDS011;15510;52.512;13.300;2023-06-24T04:10:17;11.77;;;8.88;;
28245;SDS011;15510;52.512;13.300;2023-06-24T04:12:44;14.90;;;9.77;;
28245;SDS011;15510;52.512;13.300;2023-06-24T04:15:10;12.48;;;8.55;;
28245;SDS011;15510;52.512;13.300;2023-06-24T04:17:37;10.82;;;8.98;;
28245;SDS011;15510;52.512;13.300;2023-06-24T04:20:03;11.90;;;9.00;;
28245;SDS011;15510;52.512;13.300;2023-06-24T04:22:32;9.75;;;8.75;;
28245;SDS011;15510;52.512;13.300;2023-06-24T04:24:58;13.23;;;9.35;;
28245;SDS011;15510;52.512;13.300;2023-06-24T04:27:24;11.88;;;9.90;;
28245;SDS011;15510;52.512;13.300;2023-06-24T04:29:50;14.10;;;9.43;;
28245;SDS011;15510;52.512;13.300;2023-06-24T04:32:16;16.42;;;9.52;;
28245;SDS011;15510;52.512;13.300;2023-06-24T04:34:41;12.30;;;9.50;;
28245;SDS011;15510;52.512;13.300;2023-06-24T04:37:07;11.43;;;9.75;;
28245;SDS011;15510;52.512;13.300;2023-06-24T04:39:33;11.68;;;9.00;;
28245;SDS011;15510;52.512;13.300;2023-06-24T04:41:58;9.95;;;8.57;;
28245;SDS011;15510;52.512;13.300;2023-06-24T04:44:25;14.85;;;9.25;;
28245;SDS011;15510;52.512;13.300;2023-06-24T04:46:51;12.70;;;9.50;;
28245;SDS011;15510;52.512;13.300;2023-06-24T04:49:17;10.95;;;9.60;;
28245;SDS011;15510;52.512;13.300;2023-06-24T04:51:43;13.90;;;9.60;;
28245;SDS011;15510;52.512;13.300;2023-06-24T04:54:09;15.13;;;9.55;;
28245;SDS011;15510;52.512;13.300;2023-06-24T04:56:35;9.80;;;8.65;;
28245;SDS011;15510;52.512;13.300;2023-06-24T04:59:01;12.43;;;9.02;;
28245;SDS011;15510;52.512;13.300;2023-06-24T05:01:26;9.40;;;8.23;;
28245;SDS011;15510;52.512;13.300;2023-06-24T05:03:52;10.48;;;8.82;;
28245;SDS011;15510;52.512;13.300;2023-06-24T05:06:18;13.85;;;8.95;;
28245;SDS011;15510;52.512;13.300;2023-06-24T05:08:43;15.00;;;9.00;;
28245;SDS011;15510;52.512;13.300;2023-06-24T05:11:09;12.07;;;9.50;;
28245;SDS011;15510;52.512;13.300;2023-06-24T05:13:35;11.93;;;8.90;;
28245;SDS011;15510;52.512;13.300;2023-06-24T05:16:00;10.82;;;8.32;;
28245;SDS011;15510;52.512;13.300;2023-06-24T05:18:26;11.35;;;8.30;;
28245;SDS011;15510;52.512;13.300;2023-06-24T05:20:52;10.48;;;9.13;;
28245;SDS011;15510;52.512;13.300;2023-06-24T05:23:17;11.73;;;9.07;;
28245;SDS011;15510;52.512;13.300;2023-06-24T05:25:43;9.77;;;8.23;;
28245;SDS011;15510;52.512;13.300;2023-06-24T05:28:09;9.18;;;8.00;;
28245;SDS011;15510;52.512;13.300;2023-06-24T05:30:34;12.38;;;8.00;;
28245;SDS011;15510;52.512;13.300;2023-06-24T05:33:00;10.05;;;8.00;;
28245;SDS011;15510;52.512;13.300;2023-06-24T05:35:26;12.88;;;8.05;;
28245;SDS011;15510;52.512;13.300;2023-06-24T05:37:51;11.43;;;7.72;;
28245;SDS011;15510;52.512;13.300;2023-06-24T05:40:17;11.27;;;7.82;;
28245;SDS011;15510;52.512;13.300;2023-06-24T05:42:43;10.68;;;7.40;;
28245;SDS011;15510;52.512;13.300;2023-06-24T05:45:09;12.50;;;7.43;;
28245;SDS011;15510;52.512;13.300;2023-06-24T05:47:35;13.00;;;8.27;;
28245;SDS011;15510;52.512;13.300;2023-06-24T05:50:01;8.70;;;7.30;;
28245;SDS011;15510;52.512;13.300;2023-06-24T05:52:27;8.65;;;7.72;;
28245;SDS011;15510;52.512;13.300;2023-06-24T05:54:54;11.65;;;9.00;;
28245;SDS011;15510;52.512;13.300;2023-06-24T05:57:23;9.10;;;7.97;;
28245;SDS011;15510;52.512;13.300;2023-06-24T05:59:49;9.85;;;8.23;;
28245;SDS011;15510;52.512;13.300;2023-06-24T06:02:17;12.77;;;9.27;;
28245;SDS011;15510;52.512;13.300;2023-06-24T06:04:43;10.15;;;8.60;;
28245;SDS011;15510;52.512;13.300;2023-06-24T06:07:09;9.50;;;8.63;;
28245;SDS011;15510;52.512;13.300;2023-06-24T06:09:35;9.02;;;8.02;;
28245;SDS011;15510;52.512;13.300;2023-06-24T06:12:05;10.15;;;8.75;;
28245;SDS011;15510;52.512;13.300;2023-06-24T06:14:32;8.90;;;7.75;;
28245;SDS011;15510;52.512;13.300;2023-06-24T06:16:58;11.40;;;8.27;;
28245;SDS011;15510;52.512;13.300;2023-06-24T06:19:24;9.38;;;8.38;;
28245;SDS011;15510;52.512;13.300;2023-06-24T06:21:52;9.90;;;7.40;;
28245;SDS011;15510;52.512;13.300;2023-06-24T06:24:20;11.00;;;7.55;;
28245;SDS011;15510;52.512;13.300;2023-06-24T06:26:51;9.52;;;7.35;;
28245;SDS011;15510;52.512;13.300;2023-06-24T06:29:17;9.55;;;6.82;;
28245;SDS011;15510;52.512;13.300;2023-06-24T06:31:43;9.10;;;7.45;;
28245;SDS011;15510;52.512;13.300;2023-06-24T06:34:09;9.20;;;6.60;;
28245;SDS011;15510;52.512;13.300;2023-06-24T06:36:39;8.68;;;7.03;;
28245;SDS011;15510;52.512;13.300;2023-06-24T06:39:05;7.28;;;6.57;;
28245;SDS011;15510;52.512;13.300;2023-06-24T06:41:34;8.02;;;6.13;;
28245;SDS011;15510;52.512;13.300;2023-06-24T06:44:03;10.27;;;6.80;;
28245;SDS011;15510;52.512;13.300;2023-06-24T06:46:29;7.25;;;6.30;;
28245;SDS011;15510;52.512;13.300;2023-06-24T06:48:55;8.25;;;6.45;;
28245;SDS011;15510;52.512;13.300;2023-06-24T06:51:21;8.25;;;6.82;;
28245;SDS011;15510;52.512;13.300;2023-06-24T06:53:56;10.55;;;6.00;;
28245;SDS011;15510;52.512;13.300;2023-06-24T06:56:23;6.72;;;5.95;;
28245;SDS011;15510;52.512;13.300;2023-06-24T06:58:50;9.55;;;6.32;;
28245;SDS011;15510;52.512;13.300;2023-06-24T07:01:19;8.52;;;6.15;;
28245;SDS011;15510;52.512;13.300;2023-06-24T07:03:45;7.93;;;6.90;;
28245;SDS011;15510;52.512;13.300;2023-06-24T07:06:11;6.75;;;5.97;;
28245;SDS011;15510;52.512;13.300;2023-06-24T07:08:46;10.30;;;6.18;;
28245;SDS011;15510;52.512;13.300;2023-06-24T07:11:12;9.10;;;5.53;;
28245;SDS011;15510;52.512;13.300;2023-06-24T07:13:40;7.18;;;5.28;;
28245;SDS011;15510;52.512;13.300;2023-06-24T07:16:07;11.02;;;5.90;;
28245;SDS011;15510;52.512;13.300;2023-06-24T07:18:36;7.25;;;5.70;;
28245;SDS011;15510;52.512;13.300;2023-06-24T07:21:02;8.48;;;5.00;;
28245;SDS011;15510;52.512;13.300;2023-06-24T07:23:30;5.90;;;5.32;;
28245;SDS011;15510;52.512;13.300;2023-06-24T07:25:56;7.28;;;5.32;;
28245;SDS011;15510;52.512;13.300;2023-06-24T07:28:21;7.15;;;5.50;;
28245;SDS011;15510;52.512;13.300;2023-06-24T07:30:50;6.15;;;4.72;;
28245;SDS011;15510;52.512;13.300;2023-06-24T07:33:16;5.15;;;4.68;;
28245;SDS011;15510;52.512;13.300;2023-06-24T07:35:44;5.22;;;4.63;;
28245;SDS011;15510;52.512;13.300;2023-06-24T07:38:12;6.70;;;5.18;;
28245;SDS011;15510;52.512;13.300;2023-06-24T07:40:38;4.93;;;4.53;;
28245;SDS011;15510;52.512;13.300;2023-06-24T07:43:04;4.95;;;4.18;;
28245;SDS011;15510;52.512;13.300;2023-06-24T07:45:35;5.00;;;4.35;;
28245;SDS011;15510;52.512;13.300;2023-06-24T07:48:04;8.48;;;4.95;;
28245;SDS011;15510;52.512;13.300;2023-06-24T07:50:33;4.47;;;3.72;;
28245;SDS011;15510;52.512;13.300;2023-06-24T07:53:16;7.13;;;4.25;;
28245;SDS011;15510;52.512;13.300;2023-06-24T07:55:43;5.28;;;4.25;;
28245;SDS011;15510;52.512;13.300;2023-06-24T07:58:11;7.15;;;3.90;;
28245;SDS011;15510;52.512;13.300;2023-06-24T08:00:37;4.97;;;4.47;;
28245;SDS011;15510;52.512;13.300;2023-06-24T08:03:03;6.25;;;3.78;;
28245;SDS011;15510;52.512;13.300;2023-06-24T08:05:28;4.07;;;3.78;;
28245;SDS011;15510;52.512;13.300;2023-06-24T08:07:54;4.15;;;3.78;;
28245;SDS011;15510;52.512;13.300;2023-06-24T08:10:20;5.45;;;4.45;;
28245;SDS011;15510;52.512;13.300;2023-06-24T08:12:46;6.72;;;3.63;;
28245;SDS011;15510;52.512;13.300;2023-06-24T08:15:12;4.85;;;3.80;;
28245;SDS011;15510;52.512;13.300;2023-06-24T08:17:41;9.50;;;4.40;;
28245;SDS011;15510;52.512;13.300;2023-06-24T08:20:10;7.05;;;4.07;;
28245;SDS011;15510;52.512;13.300;2023-06-24T08:22:36;4.50;;;3.70;;
28245;SDS011;15510;52.512;13.300;2023-06-24T08:25:02;6.30;;;4.13;;
28245;SDS011;15510;52.512;13.300;2023-06-24T08:27:28;5.32;;;3.92;;
28245;SDS011;15510;52.512;13.300;2023-06-24T08:30:13;3.67;;;3.35;;
28245;SDS011;15510;52.512;13.300;2023-06-24T08:32:58;4.85;;;3.70;;
28245;SDS011;15510;52.512;13.300;2023-06-24T08:35:24;4.90;;;4.03;;
28245;SDS011;15510;52.512;13.300;2023-06-24T08:37:50;6.53;;;3.97;;
28245;SDS011;15510;52.512;13.300;2023-06-24T08:40:15;5.68;;;3.60;;
28245;SDS011;15510;52.512;13.300;2023-06-24T08:42:43;6.10;;;4.20;;
28245;SDS011;15510;52.512;13.300;2023-06-24T08:45:09;4.30;;;3.90;;
28245;SDS011;15510;52.512;13.300;2023-06-24T08:51:07;5.07;;;3.42;;
28245;SDS011;15510;52.512;13.300;2023-06-24T08:53:35;5.47;;;4.00;;
28245;SDS011;15510;52.512;13.300;2023-06-24T08:56:03;5.60;;;4.20;;
28245;SDS011;15510;52.512;13.300;2023-06-24T08:58:30;4.72;;;3.85;;
28245;SDS011;15510;52.512;13.300;2023-06-24T09:00:56;4.50;;;3.10;;
28245;SDS011;15510;52.512;13.300;2023-06-24T09:03:22;5.32;;;3.53;;
28245;SDS011;15510;52.512;13.300;2023-06-24T09:06:08;4.07;;;3.42;;
28245;SDS011;15510;52.512;13.300;2023-06-24T09:08:37;5.07;;;3.58;;
28245;SDS011;15510;52.512;13.300;2023-06-24T09:11:04;4.63;;;3.47;;
28245;SDS011;15510;52.512;13.300;2023-06-24T09:13:34;4.53;;;3.50;;
28245;SDS011;15510;52.512;13.300;2023-06-24T09:16:14;4.28;;;3.55;;
28245;SDS011;15510;52.512;13.300;2023-06-24T09:18:41;3.40;;;3.10;;
28245;SDS011;15510;52.512;13.300;2023-06-24T09:21:07;4.65;;;3.00;;
28245;SDS011;15510;52.512;13.300;2023-06-24T09:23:36;6.50;;;3.55;;
28245;SDS011;15510;52.512;13.300;2023-06-24T09:26:08;3.92;;;2.90;;
28245;SDS011;15510;52.512;13.300;2023-06-24T09:28:35;2.95;;;2.67;;
28245;SDS011;15510;52.512;13.300;2023-06-24T09:31:07;5.80;;;3.30;;
28245;SDS011;15510;52.512;13.300;2023-06-24T09:33:34;4.25;;;3.17;;
28245;SDS011;15510;52.512;13.300;2023-06-24T09:36:03;5.07;;;3.35;;
28245;SDS011;15510;52.512;13.300;2023-06-24T09:38:33;2.92;;;2.70;;
28245;SDS011;15510;52.512;13.300;2023-06-24T09:41:04;5.25;;;3.40;;
28245;SDS011;15510;52.512;13.300;2023-06-24T09:43:34;4.22;;;3.03;;
28245;SDS011;15510;52.512;13.300;2023-06-24T09:46:06;3.97;;;3.03;;
28245;SDS011;15510;52.512;13.300;2023-06-24T09:48:36;2.90;;;2.70;;
28245;SDS011;15510;52.512;13.300;2023-06-24T09:51:04;3.80;;;2.78;;
28245;SDS011;15510;52.512;13.300;2023-06-24T09:53:33;3.92;;;2.50;;
28245;SDS011;15510;52.512;13.300;2023-06-24T09:56:00;3.88;;;2.97;;
28245;SDS011;15510;52.512;13.300;2023-06-24T09:58:31;4.43;;;3.17;;
28245;SDS011;15510;52.512;13.300;2023-06-24T10:01:03;5.40;;;3.10;;
28245;SDS011;15510;52.512;13.300;2023-06-24T10:03:31;2.88;;;2.67;;
28245;SDS011;15510;52.512;13.300;2023-06-24T10:06:10;2.90;;;2.63;;
28245;SDS011;15510;52.512;13.300;2023-06-24T10:08:44;8.57;;;2.95;;
28245;SDS011;15510;52.512;13.300;2023-06-24T10:11:14;7.05;;;3.35;;
28245;SDS011;15510;52.512;13.300;2023-06-24T10:13:49;3.17;;;2.80;;
28245;SDS011;15510;52.512;13.300;2023-06-24T10:16:18;3.72;;;2.75;;
28245;SDS011;15510;52.512;13.300;2023-06-24T10:18:48;3.30;;;2.67;;
28245;SDS011;15510;52.512;13.300;2023-06-24T10:21:19;3.25;;;2.95;;
28245;SDS011;15510;52.512;13.300;2023-06-24T10:26:24;3.70;;;3.08;;
28245;SDS011;15510;52.512;13.300;2023-06-24T10:29:14;3.20;;;2.90;;
28245;SDS011;15510;52.512;13.300;2023-06-24T10:44:51;4.43;;;2.75;;
28245;SDS011;15510;52.512;13.300;2023-06-24T10:47:18;2.60;;;2.15;;
28245;SDS011;15510;52.512;13.300;2023-06-24T10:49:45;3.45;;;2.65;;
28245;SDS011;15510;52.512;13.300;2023-06-24T10:52:13;4.63;;;3.15;;
28245;SDS011;15510;52.512;13.300;2023-06-24T10:54:40;3.78;;;3.08;;
28245;SDS011;15510;52.512;13.300;2023-06-24T10:57:07;3.53;;;3.00;;
28245;SDS011;15510;52.512;13.300;2023-06-24T10:59:43;6.93;;;3.20;;
28245;SDS011;15510;52.512;13.300;2023-06-24T11:02:16;4.15;;;3.22;;
28245;SDS011;15510;52.512;13.300;2023-06-24T11:04:48;3.40;;;2.92;;
28245;SDS011;15510;52.512;13.300;2023-06-24T11:07:17;2.50;;;2.30;;
28245;SDS011;15510;52.512;13.300;2023-06-24T11:09:50;2.60;;;2.40;;
28245;SDS011;15510;52.512;13.300;2023-06-24T11:12:17;4.22;;;3.28;;
28245;SDS011;15510;52.512;13.300;2023-06-24T11:14:46;3.25;;;2.38;;
28245;SDS011;15510;52.512;13.300;2023-06-24T11:17:12;3.70;;;2.72;;
28245;SDS011;15510;52.512;13.300;2023-06-24T11:19:38;4.93;;;2.38;;
28245;SDS011;15510;52.512;13.300;2023-06-24T11:22:09;2.60;;;2.38;;
28245;SDS011;15510;52.512;13.300;2023-06-24T11:24:35;8.75;;;2.30;;
28245;SDS011;15510;52.512;13.300;2023-06-24T11:27:01;3.28;;;2.15;;
28245;SDS011;15510;52.512;13.300;2023-06-24T11:29:32;2.30;;;1.95;;
28245;SDS011;15510;52.512;13.300;2023-06-24T11:32:00;4.85;;;1.98;;
28245;SDS011;15510;52.512;13.300;2023-06-24T11:34:32;2.75;;;1.90;;
28245;SDS011;15510;52.512;13.300;2023-06-24T11:36:57;3.22;;;2.10;;
28245;SDS011;15510;52.512;13.300;2023-06-24T11:39:27;4.45;;;1.85;;
28245;SDS011;15510;52.512;13.300;2023-06-24T11:41:53;2.28;;;2.00;;
28245;SDS011;15510;52.512;13.300;2023-06-24T11:44:23;1.95;;;1.80;;
28245;SDS011;15510;52.512;13.300;2023-06-24T11:46:49;2.40;;;1.90;;
28245;SDS011;15510;52.512;13.300;2023-06-24T11:49:18;3.90;;;1.83;;
28245;SDS011;15510;52.512;13.300;2023-06-24T11:51:48;1.85;;;1.60;;
28245;SDS011;15510;52.512;13.300;2023-06-24T11:54:18;3.40;;;1.80;;
28245;SDS011;15510;52.512;13.300;2023-06-24T11:56:50;3.80;;;1.90;;
28245;SDS011;15510;52.512;13.300;2023-06-24T11:59:26;1.98;;;1.77;;
28245;SDS011;15510;52.512;13.300;2023-06-24T12:01:56;4.22;;;2.45;;
28245;SDS011;15510;52.512;13.300;2023-06-24T12:04:31;2.10;;;1.88;;
28245;SDS011;15510;52.512;13.300;2023-06-24T12:06:58;3.88;;;2.00;;
28245;SDS011;15510;52.512;13.300;2023-06-24T12:09:25;3.33;;;1.70;;
28245;SDS011;15510;52.512;13.300;2023-06-24T12:11:51;4.00;;;2.13;;
28245;SDS011;15510;52.512;13.300;2023-06-24T12:14:21;2.22;;;1.83;;
28245;SDS011;15510;52.512;13.300;2023-06-24T12:16:46;3.78;;;2.38;;
28245;SDS011;15510;52.512;13.300;2023-06-24T12:19:12;2.53;;;2.17;;
28245;SDS011;15510;52.512;13.300;2023-06-24T12:21:41;3.85;;;2.00;;
28245;SDS011;15510;52.512;13.300;2023-06-24T12:24:09;4.22;;;2.60;;
28245;SDS011;15510;52.512;13.300;2023-06-24T12:26:35;5.03;;;1.60;;
28245;SDS011;15510;52.512;13.300;2023-06-24T12:29:02;4.28;;;1.88;;
28245;SDS011;15510;52.512;13.300;2023-06-24T12:31:27;3.63;;;1.88;;
28245;SDS011;15510;52.512;13.300;2023-06-24T12:33:56;4.10;;;2.13;;
28245;SDS011;15510;52.512;13.300;2023-06-24T12:36:22;2.30;;;2.10;;
28245;SDS011;15510;52.512;13.300;2023-06-24T12:38:49;3.92;;;2.55;;
28245;SDS011;15510;52.512;13.300;2023-06-24T12:41:17;5.30;;;1.85;;
28245;SDS011;15510;52.512;13.300;2023-06-24T12:43:49;3.05;;;1.50;;
28245;SDS011;15510;52.512;13.300;2023-06-24T12:46:23;4.00;;;1.58;;
28245;SDS011;15510;52.512;13.300;2023-06-24T12:48:48;3.75;;;1.80;;
28245;SDS011;15510;52.512;13.300;2023-06-24T12:51:14;3.40;;;1.85;;
28245;SDS011;15510;52.512;13.300;2023-06-24T12:53:45;2.45;;;1.63;;
28245;SDS011;15510;52.512;13.300;2023-06-24T12:56:11;4.18;;;2.20;;
28245;SDS011;15510;52.512;13.300;2023-06-24T12:58:38;3.00;;;1.50;;
28245;SDS011;15510;52.512;13.300;2023-06-24T13:01:04;2.53;;;1.60;;
28245;SDS011;15510;52.512;13.300;2023-06-24T13:03:32;5.80;;;2.08;;
28245;SDS011;15510;52.512;13.300;2023-06-24T13:06:01;2.03;;;1.83;;
28245;SDS011;15510;52.512;13.300;2023-06-24T13:08:30;4.80;;;2.05;;
28245;SDS011;15510;52.512;13.300;2023-06-24T13:10:58;2.22;;;1.70;;
28245;SDS011;15510;52.512;13.300;2023-06-24T13:13:24;1.67;;;1.58;;
28245;SDS011;15510;52.512;13.300;2023-06-24T13:15:50;1.60;;;1.50;;
28245;SDS011;15510;52.512;13.300;2023-06-24T13:18:16;2.75;;;1.67;;
28245;SDS011;15510;52.512;13.300;2023-06-24T13:20:44;4.80;;;1.88;;
28245;SDS011;15510;52.512;13.300;2023-06-24T13:23:13;2.00;;;1.55;;
28245;SDS011;15510;52.512;13.300;2023-06-24T13:25:42;4.00;;;1.50;;
28245;SDS011;15510;52.512;13.300;2023-06-24T13:28:08;4.50;;;1.80;;
28245;SDS011;15510;52.512;13.300;2023-06-24T13:30:34;8.80;;;1.80;;
28245;SDS011;15510;52.512;13.300;2023-06-24T13:32:59;3.72;;;1.60;;
28245;SDS011;15510;52.512;13.300;2023-06-24T13:35:25;2.63;;;1.80;;
28245;SDS011;15510;52.512;13.300;2023-06-24T13:37:51;4.80;;;1.70;;
28245;SDS011;15510;52.512;13.300;2023-06-24T13:40:19;3.88;;;1.77;;
28245;SDS011;15510;52.512;13.300;2023-06-24T13:42:54;2.10;;;1.60;;
28245;SDS011;15510;52.512;13.300;2023-06-24T13:45:22;4.03;;;2.00;;
28245;SDS011;15510;52.512;13.300;2023-06-24T13:47:51;2.35;;;1.50;;
28245;SDS011;15510;52.512;13.300;2023-06-24T13:50:19;2.03;;;1.70;;
28245;SDS011;15510;52.512;13.300;2023-06-24T13:52:52;3.38;;;1.63;;
28245;SDS011;15510;52.512;13.300;2023-06-24T13:55:21;2.53;;;1.70;;
28245;SDS011;15510;52.512;13.300;2023-06-24T13:57:47;1.77;;;1.58;;
28245;SDS011;15510;52.512;13.300;2023-06-24T14:00:15;2.83;;;1.70;;
28245;SDS011;15510;52.512;13.300;2023-06-24T14:02:45;2.33;;;2.03;;
28245;SDS011;15510;52.512;13.300;2023-06-24T14:05:18;3.05;;;1.90;;
28245;SDS011;15510;52.512;13.300;2023-06-24T14:07:47;3.05;;;1.77;;
28245;SDS011;15510;52.512;13.300;2023-06-24T14:10:15;4.35;;;1.52;;
28245;SDS011;15510;52.512;13.300;2023-06-24T14:12:41;3.50;;;2.00;;
28245;SDS011;15510;52.512;13.300;2023-06-24T14:15:08;4.32;;;2.00;;
28245;SDS011;15510;52.512;13.300;2023-06-24T14:17:35;3.92;;;1.70;;
28245;SDS011;15510;52.512;13.300;2023-06-24T14:20:01;1.65;;;1.50;;
28245;SDS011;15510;52.512;13.300;2023-06-24T14:22:27;2.30;;;1.70;;
28245;SDS011;15510;52.512;13.300;2023-06-24T14:24:56;2.85;;;1.50;;
28245;SDS011;15510;52.512;13.300;2023-06-24T14:27:31;1.88;;;1.70;;
28245;SDS011;15510;52.512;13.300;2023-06-24T14:29:57;6.50;;;1.73;;
28245;SDS011;15510;52.512;13.300;2023-06-24T14:32:23;2.10;;;1.77;;
28245;SDS011;15510;52.512;13.300;2023-06-24T14:34:49;4.20;;;1.63;;
28245;SDS011;15510;52.512;13.300;2023-06-24T14:37:14;4.57;;;1.52;;
28245;SDS011;15510;52.512;13.300;2023-06-24T14:39:41;4.05;;;1.70;;
28245;SDS011;15510;52.512;13.300;2023-06-24T14:42:07;5.70;;;5.25;;
28245;SDS011;15510;52.512;13.300;2023-06-24T14:44:33;3.58;;;1.60;;
28245;SDS011;15510;52.512;13.300;2023-06-24T14:46:59;5.60;;;2.08;;
28245;SDS011;15510;52.512;13.300;2023-06-24T14:49:24;2.88;;;1.67;;
28245;SDS011;15510;52.512;13.300;2023-06-24T14:51:51;2.05;;;1.85;;
28245;SDS011;15510;52.512;13.300;2023-06-24T14:54:17;8.43;;;1.80;;
28245;SDS011;15510;52.512;13.300;2023-06-24T14:56:44;2.15;;;1.95;;
28245;SDS011;15510;52.512;13.300;2023-06-24T14:59:11;3.00;;;2.45;;
28245;SDS011;15510;52.512;13.300;2023-06-24T15:01:40;3.85;;;2.15;;
28245;SDS011;15510;52.512;13.300;2023-06-24T15:04:06;4.45;;;2.53;;
28245;SDS011;15510;52.512;13.300;2023-06-24T15:06:31;2.30;;;2.10;;